Time;durP1;ratioP1;P1;durP2;ratioP2;P2;SDS_P1;SDS_P2;PMS_P1;PMS_P2;Temp;Humidity;BMP_temperature;BMP_pressure;BME280_temperature;BME280_humidity;BME280_pressure;Samples;Min_cycle;Max_cycle;Signal;HPM_P1;HPM_P2
2022/11/09 00:01:27;;;;;;;11.50;2.97;;;;;;;;;;4986947;28;20061;-79
2022/11/09 00:03:59;;;;;;;13.57;3.03;;;;;;;;;;4991932;28;20084;-77
2022/11/09 00:06:26;;;;;;;11.75;3.10;;;;;;;;;;4969330;28;20026;-78
2022/11/09 00:08:54;;;;;;;11.65;3.63;;;;;;;;;;4986912;28;20030;-79
2022/11/09 00:11:21;;;;;;;13.80;3.25;;;;;;;;;;4990920;28;20054;-77
2022/11/09 00:13:47;;;;;;;16.92;3.33;;;;;;;;;;4989579;28;20022;-77
2022/11/09 00:16:15;;;;;;;15.00;3.83;;;;;;;;;;4987402;28;20070;-77
2022/11/09 00:18:47;;;;;;;14.85;3.60;;;;;;;;;;4991513;28;20034;-77
2022/11/09 00:21:15;;;;;;;17.40;3.38;;;;;;;;;;4983361;28;20027;-77
2022/11/09 00:23:42;;;;;;;13.55;3.08;;;;;;;;;;4987368;28;20182;-78
2022/11/09 00:26:09;;;;;;;14.38;3.28;;;;;;;;;;4989596;28;20438;-78
2022/11/09 00:28:35;;;;;;;15.15;3.13;;;;;;;;;;4972509;28;20517;-78
2022/11/09 00:31:03;;;;;;;13.18;2.78;;;;;;;;;;4985221;28;20058;-77
2022/11/09 00:33:29;;;;;;;13.35;3.60;;;;;;;;;;4991175;28;20672;-78
2022/11/09 00:35:55;;;;;;;19.17;4.82;;;;;;;;;;4988215;28;20046;-77
2022/11/09 00:38:21;;;;;;;15.88;3.20;;;;;;;;;;4991711;28;20026;-78
2022/11/09 00:40:47;;;;;;;13.35;2.85;;;;;;;;;;4991234;28;20085;-78
2022/11/09 00:43:14;;;;;;;8.23;2.95;;;;;;;;;;4986031;28;20030;-79
2022/11/09 00:45:40;;;;;;;10.98;2.20;;;;;;;;;;4971581;28;20512;-79
2022/11/09 00:48:06;;;;;;;15.63;4.30;;;;;;;;;;4987531;28;20026;-79
2022/11/09 00:50:32;;;;;;;18.17;2.80;;;;;;;;;;4984272;28;20113;-78
2022/11/09 00:52:58;;;;;;;9.52;2.60;;;;;;;;;;4989028;28;20076;-79
2022/11/09 00:55:24;;;;;;;11.88;2.85;;;;;;;;;;4988205;28;20117;-79
2022/11/09 00:57:51;;;;;;;15.32;4.15;;;;;;;;;;4991782;28;20033;-78
2022/11/09 01:00:18;;;;;;;17.67;2.83;;;;;;;;;;4991896;28;20164;-78
2022/11/09 01:02:44;;;;;;;12.65;3.38;;;;;;;;;;4997920;28;20018;-79
2022/11/09 01:05:10;;;;;;;10.93;2.70;;;;;;;;;;4980210;28;20038;-79
2022/11/09 01:07:36;;;;;;;15.85;3.08;;;;;;;;;;4996266;28;20386;-78
2022/11/09 01:10:03;;;;;;;18.27;2.90;;;;;;;;;;5000377;28;20098;-78
2022/11/09 01:12:29;;;;;;;13.18;2.67;;;;;;;;;;4998212;28;20560;-77
2022/11/09 01:14:55;;;;;;;18.70;3.25;;;;;;;;;;5002051;28;20072;-78
2022/11/09 01:17:21;;;;;;;12.90;3.05;;;;;;;;;;5003546;28;20094;-79
2022/11/09 01:19:47;;;;;;;15.52;3.25;;;;;;;;;;5005679;28;20010;-77
2022/11/09 01:22:13;;;;;;;20.48;3.22;;;;;;;;;;4983791;28;20057;-75
2022/11/09 01:24:39;;;;;;;19.30;3.08;;;;;;;;;;5007498;28;20050;-77
2022/11/09 01:27:05;;;;;;;14.23;2.60;;;;;;;;;;5003467;28;20034;-78
2022/11/09 01:29:31;;;;;;;16.20;3.83;;;;;;;;;;4972644;28;20041;-78
2022/11/09 01:31:57;;;;;;;21.08;3.58;;;;;;;;;;4984905;28;20033;-76
2022/11/09 01:34:23;;;;;;;19.35;3.28;;;;;;;;;;5008178;28;20049;-77
2022/11/09 01:36:50;;;;;;;18.95;3.05;;;;;;;;;;4991496;28;20061;-78
2022/11/09 01:39:16;;;;;;;19.88;2.70;;;;;;;;;;5007369;28;20489;-77
2022/11/09 01:41:42;;;;;;;23.77;3.47;;;;;;;;;;4998310;28;20054;-76
2022/11/09 01:44:11;;;;;;;20.25;3.90;;;;;;;;;;5007166;28;20035;-75
2022/11/09 01:46:40;;;;;;;24.58;3.05;;;;;;;;;;4984882;28;20049;-77
2022/11/09 01:49:10;;;;;;;20.63;3.25;;;;;;;;;;4996298;28;20042;-76
2022/11/09 01:51:42;;;;;;;25.63;4.53;;;;;;;;;;4997443;28;20038;-77
2022/11/09 01:54:14;;;;;;;22.90;3.72;;;;;;;;;;4996383;28;20050;-77
2022/11/09 01:56:40;;;;;;;16.40;3.28;;;;;;;;;;4993311;28;20014;-77
2022/11/09 01:59:09;;;;;;;15.27;3.10;;;;;;;;;;4993042;28;20148;-76
2022/11/09 02:01:36;;;;;;;29.08;4.55;;;;;;;;;;4989583;28;20039;-76
2022/11/09 02:04:05;;;;;;;17.42;3.03;;;;;;;;;;4992903;28;20512;-78
2022/11/09 02:06:31;;;;;;;16.75;2.85;;;;;;;;;;4988786;28;20011;-77
2022/11/09 02:09:02;;;;;;;20.45;3.58;;;;;;;;;;4975269;28;20042;-75
2022/11/09 02:11:29;;;;;;;18.17;3.00;;;;;;;;;;4972195;28;20030;-76
2022/11/09 02:13:56;;;;;;;14.27;2.55;;;;;;;;;;4985765;28;20026;-77
2022/11/09 02:16:23;;;;;;;18.52;2.90;;;;;;;;;;4986291;28;20030;-76
2022/11/09 02:18:53;;;;;;;15.82;3.03;;;;;;;;;;4985123;28;20105;-76
2022/11/09 02:21:20;;;;;;;18.40;3.72;;;;;;;;;;4986308;28;20022;-75
2022/11/09 02:23:46;;;;;;;16.52;3.20;;;;;;;;;;4968318;28;20058;-76
2022/11/09 02:26:19;;;;;;;17.00;2.95;;;;;;;;;;4968269;28;20054;-75
2022/11/09 02:28:45;;;;;;;20.75;3.63;;;;;;;;;;4982940;28;20084;-76
2022/11/09 02:31:13;;;;;;;12.27;3.10;;;;;;;;;;4971207;28;20485;-75
2022/11/09 02:33:42;;;;;;;15.38;2.90;;;;;;;;;;4968447;28;20085;-76
2022/11/09 02:36:08;;;;;;;17.08;3.40;;;;;;;;;;4986141;28;20102;-76
2022/11/09 02:38:35;;;;;;;16.15;3.20;;;;;;;;;;4989150;28;20156;-76
2022/11/09 02:41:02;;;;;;;15.57;2.95;;;;;;;;;;4980947;28;20031;-76
2022/11/09 02:43:28;;;;;;;22.17;3.17;;;;;;;;;;4970531;28;20069;-76
2022/11/09 02:45:54;;;;;;;19.58;3.60;;;;;;;;;;4979660;28;20066;-78
2022/11/09 02:48:19;;;;;;;13.70;3.45;;;;;;;;;;4998118;28;20098;-77
2022/11/09 02:50:45;;;;;;;14.75;3.13;;;;;;;;;;4983385;28;20042;-75
2022/11/09 02:53:11;;;;;;;16.08;3.20;;;;;;;;;;4984108;28;20034;-78
2022/11/09 02:55:37;;;;;;;17.75;4.13;;;;;;;;;;4968229;28;20034;-77
2022/11/09 02:58:03;;;;;;;12.60;2.97;;;;;;;;;;4985703;28;20041;-79
2022/11/09 03:00:29;;;;;;;17.38;3.00;;;;;;;;;;4976567;28;20041;-78
2022/11/09 03:02:56;;;;;;;15.70;2.80;;;;;;;;;;5001183;28;20022;-78
2022/11/09 03:05:21;;;;;;;17.15;4.00;;;;;;;;;;4971498;28;20058;-78
2022/11/09 03:07:48;;;;;;;13.50;3.80;;;;;;;;;;4991492;28;20030;-79
2022/11/09 03:10:14;;;;;;;14.65;3.33;;;;;;;;;;4994011;28;20515;-79
2022/11/09 03:12:40;;;;;;;13.32;3.42;;;;;;;;;;4994405;28;20058;-79
2022/11/09 03:15:07;;;;;;;19.80;3.95;;;;;;;;;;5004350;28;20038;-81
2022/11/09 03:17:33;;;;;;;20.42;3.85;;;;;;;;;;5003601;28;20114;-79
2022/11/09 03:20:00;;;;;;;14.50;4.15;;;;;;;;;;4999367;28;20049;-77
2022/11/09 03:22:26;;;;;;;13.60;4.00;;;;;;;;;;4997059;28;20054;-76
2022/11/09 03:24:52;;;;;;;15.93;3.20;;;;;;;;;;5002373;28;20051;-77
2022/11/09 03:27:18;;;;;;;15.60;3.67;;;;;;;;;;4994939;28;20025;-79
2022/11/09 03:29:44;;;;;;;12.80;3.40;;;;;;;;;;4999807;28;20047;-77
2022/11/09 03:32:11;;;;;;;14.80;3.53;;;;;;;;;;5001878;28;20033;-76
2022/11/09 03:34:37;;;;;;;13.82;3.42;;;;;;;;;;4989975;28;20086;-76
2022/11/09 03:37:03;;;;;;;17.30;3.78;;;;;;;;;;4999480;28;20042;-78
2022/11/09 03:39:29;;;;;;;15.95;4.30;;;;;;;;;;4997791;28;20061;-79
2022/11/09 03:41:55;;;;;;;13.73;3.40;;;;;;;;;;4985413;28;20010;-78
2022/11/09 03:44:21;;;;;;;14.07;3.15;;;;;;;;;;5005685;28;20037;-78
2022/11/09 03:46:47;;;;;;;13.75;3.15;;;;;;;;;;4998126;28;20339;-77
2022/11/09 03:49:13;;;;;;;31.63;3.67;;;;;;;;;;5000203;28;20367;-78
2022/11/09 03:51:39;;;;;;;16.67;3.70;;;;;;;;;;4995793;28;20078;-76
2022/11/09 03:54:06;;;;;;;16.75;3.70;;;;;;;;;;4997111;28;20089;-78
2022/11/09 03:56:32;;;;;;;18.55;3.92;;;;;;;;;;4996120;28;20042;-78
2022/11/09 03:58:58;;;;;;;11.52;3.03;;;;;;;;;;4978022;28;20026;-77
2022/11/09 04:01:24;;;;;;;19.70;4.38;;;;;;;;;;4992356;28;20043;-78
2022/11/09 04:03:50;;;;;;;14.85;3.05;;;;;;;;;;4993022;28;20409;-79
2022/11/09 04:06:16;;;;;;;17.88;3.13;;;;;;;;;;4975031;28;20057;-78
2022/11/09 04:08:42;;;;;;;11.02;2.88;;;;;;;;;;4987305;28;20069;-77
2022/11/09 04:11:08;;;;;;;16.30;3.13;;;;;;;;;;4989085;28;20030;-78
2022/11/09 04:13:34;;;;;;;13.65;3.10;;;;;;;;;;4986250;28;20509;-77
2022/11/09 04:16:00;;;;;;;14.57;3.60;;;;;;;;;;4990213;28;20077;-77
2022/11/09 04:18:26;;;;;;;14.23;3.72;;;;;;;;;;4992491;28;20120;-78
2022/11/09 04:20:52;;;;;;;15.77;3.40;;;;;;;;;;4986910;28;20065;-79
2022/11/09 04:23:18;;;;;;;12.43;2.63;;;;;;;;;;4996850;28;20043;-77
2022/11/09 04:25:44;;;;;;;13.00;2.65;;;;;;;;;;4993656;28;20383;-78
2022/11/09 04:28:11;;;;;;;14.85;3.25;;;;;;;;;;4988077;28;20019;-77
2022/11/09 04:30:37;;;;;;;13.52;2.80;;;;;;;;;;4989729;28;20062;-79
2022/11/09 04:33:03;;;;;;;16.45;3.30;;;;;;;;;;4992659;28;20124;-79
2022/11/09 04:35:30;;;;;;;10.93;2.70;;;;;;;;;;4990502;28;20529;-78
2022/11/09 04:38:00;;;;;;;11.77;3.13;;;;;;;;;;4993308;28;20037;-78
2022/11/09 04:40:27;;;;;;;16.60;2.80;;;;;;;;;;4989848;28;20038;-78
2022/11/09 04:42:53;;;;;;;15.65;3.20;;;;;;;;;;4987714;28;20053;-77
2022/11/09 04:45:19;;;;;;;16.58;3.47;;;;;;;;;;4975349;28;20105;-75
2022/11/09 04:47:45;;;;;;;10.15;2.55;;;;;;;;;;4987382;28;20038;-79
2022/11/09 04:50:11;;;;;;;13.90;2.72;;;;;;;;;;4994229;28;20049;-76
2022/11/09 04:52:37;;;;;;;18.42;3.10;;;;;;;;;;4993844;28;20027;-77
2022/11/09 04:55:04;;;;;;;19.45;3.88;;;;;;;;;;4982914;28;20049;-78
2022/11/09 04:57:30;;;;;;;15.27;3.95;;;;;;;;;;5000175;28;20578;-77
2022/11/09 04:59:56;;;;;;;13.73;2.90;;;;;;;;;;5001112;28;20113;-79
2022/11/09 05:02:22;;;;;;;16.38;2.90;;;;;;;;;;4982381;28;20042;-79
2022/11/09 05:04:48;;;;;;;13.73;4.05;;;;;;;;;;4988175;28;20015;-78
2022/11/09 05:07:14;;;;;;;17.95;3.22;;;;;;;;;;5001672;28;20085;-77
2022/11/09 05:09:40;;;;;;;15.43;2.58;;;;;;;;;;5002401;28;20141;-78
2022/11/09 05:12:07;;;;;;;10.63;3.17;;;;;;;;;;5006670;28;20038;-79
2022/11/09 05:14:33;;;;;;;13.75;2.90;;;;;;;;;;4988401;28;20027;-78
2022/11/09 05:16:59;;;;;;;15.88;2.65;;;;;;;;;;4995506;28;20070;-78
2022/11/09 05:19:25;;;;;;;15.65;2.83;;;;;;;;;;5000475;28;20047;-79
2022/11/09 05:21:53;;;;;;;11.80;2.38;;;;;;;;;;5001515;28;20069;-79
2022/11/09 05:24:19;;;;;;;12.20;3.10;;;;;;;;;;4999000;28;20069;-78
2022/11/09 05:26:45;;;;;;;11.75;2.60;;;;;;;;;;5001077;28;20046;-78
2022/11/09 05:29:12;;;;;;;18.40;3.33;;;;;;;;;;5008001;28;20062;-79
2022/11/09 05:31:38;;;;;;;16.73;2.70;;;;;;;;;;4996861;28;20370;-81
2022/11/09 05:34:05;;;;;;;17.92;3.70;;;;;;;;;;4994515;28;20026;-79
2022/11/09 05:36:32;;;;;;;16.98;3.20;;;;;;;;;;4994104;28;20031;-79
2022/11/09 05:38:58;;;;;;;18.52;3.97;;;;;;;;;;4992236;28;20062;-78
2022/11/09 05:41:24;;;;;;;20.05;3.75;;;;;;;;;;4992433;28;20037;-78
2022/11/09 05:43:51;;;;;;;26.30;3.67;;;;;;;;;;4992633;28;20518;-79
2022/11/09 05:46:35;;;;;;;21.20;3.10;;;;;;;;;;4975733;28;20026;-79
2022/11/09 05:49:02;;;;;;;11.30;2.40;;;;;;;;;;4993302;28;20038;-78
2022/11/09 05:51:30;;;;;;;24.75;3.15;;;;;;;;;;4977019;28;20025;-79
2022/11/09 05:53:56;;;;;;;19.63;4.28;;;;;;;;;;4991372;28;20117;-78
2022/11/09 05:56:22;;;;;;;17.35;3.17;;;;;;;;;;4984126;28;20037;-78
2022/11/09 05:58:48;;;;;;;19.15;3.42;;;;;;;;;;4993240;28;20114;-79
2022/11/09 06:01:35;;;;;;;15.95;3.10;;;;;;;;;;4976458;28;20036;-78
2022/11/09 06:04:01;;;;;;;20.17;2.80;;;;;;;;;;4992996;28;20022;-78
2022/11/09 06:06:28;;;;;;;15.75;2.90;;;;;;;;;;4993900;28;20434;-78
2022/11/09 06:08:54;;;;;;;14.50;3.42;;;;;;;;;;4985205;28;20038;-78
2022/11/09 06:11:20;;;;;;;22.42;3.45;;;;;;;;;;4984385;28;20031;-77
2022/11/09 06:13:46;;;;;;;20.35;2.95;;;;;;;;;;4974112;28;20035;-79
2022/11/09 06:16:12;;;;;;;15.93;3.22;;;;;;;;;;4993536;28;20046;-79
2022/11/09 06:18:38;;;;;;;21.20;4.50;;;;;;;;;;4977150;28;20117;-79
2022/11/09 06:21:05;;;;;;;23.10;3.20;;;;;;;;;;4995418;28;20042;-78
2022/11/09 06:23:33;;;;;;;11.77;3.45;;;;;;;;;;4997090;28;20513;-79
2022/11/09 06:26:00;;;;;;;16.52;2.85;;;;;;;;;;4980052;28;20050;-79
2022/11/09 06:28:47;;;;;;;23.00;3.70;;;;;;;;;;4986626;28;20039;-80
2022/11/09 06:31:14;;;;;;;17.42;3.45;;;;;;;;;;5002588;28;20018;-79
2022/11/09 06:33:59;;;;;;;15.68;3.00;;;;;;;;;;4996975;28;20057;-79
2022/11/09 06:36:25;;;;;;;24.05;4.88;;;;;;;;;;4998673;28;20030;-77
2022/11/09 06:38:51;;;;;;;25.77;4.68;;;;;;;;;;4982609;28;20127;-78
2022/11/09 06:41:18;;;;;;;19.63;3.08;;;;;;;;;;4978284;28;20042;-79
2022/11/09 06:44:04;;;;;;;15.38;2.83;;;;;;;;;;4989991;28;20026;-79
2022/11/09 06:46:30;;;;;;;17.48;3.55;;;;;;;;;;4997705;28;20038;-76
2022/11/09 06:48:56;;;;;;;17.33;3.35;;;;;;;;;;4980270;28;20062;-77
2022/11/09 06:51:22;;;;;;;19.17;3.33;;;;;;;;;;4995257;28;20044;-76
2022/11/09 06:53:49;;;;;;;14.52;2.95;;;;;;;;;;4979290;28;20053;-77
2022/11/09 06:56:15;;;;;;;28.25;4.70;;;;;;;;;;4986012;28;20030;-77
2022/11/09 06:59:00;;;;;;;17.20;3.92;;;;;;;;;;4995231;28;20102;-76
2022/11/09 07:01:28;;;;;;;18.75;2.92;;;;;;;;;;5000272;28;20442;-77
2022/11/09 07:03:54;;;;;;;25.17;3.65;;;;;;;;;;4998474;28;20030;-75
2022/11/09 07:06:20;;;;;;;19.13;3.70;;;;;;;;;;4984616;28;20033;-76
2022/11/09 07:09:05;;;;;;;15.48;3.40;;;;;;;;;;4999673;28;20027;-77
2022/11/09 07:11:31;;;;;;;25.15;4.40;;;;;;;;;;5000837;28;20021;-77
2022/11/09 07:13:57;;;;;;;31.10;4.35;;;;;;;;;;5002289;28;20035;-78
2022/11/09 07:16:23;;;;;;;19.45;4.10;;;;;;;;;;4986275;28;20081;-77
2022/11/09 07:18:49;;;;;;;15.77;3.72;;;;;;;;;;5002481;28;20054;-77
2022/11/09 07:21:15;;;;;;;24.58;4.40;;;;;;;;;;4980972;28;20018;-77
2022/11/09 07:23:41;;;;;;;20.58;3.85;;;;;;;;;;5009054;28;20532;-76
2022/11/09 07:26:07;;;;;;;23.20;3.90;;;;;;;;;;5010837;28;20039;-77
2022/11/09 07:28:33;;;;;;;15.68;3.55;;;;;;;;;;5012238;28;20071;-78
2022/11/09 07:31:19;;;;;;;21.10;3.58;;;;;;;;;;4999433;28;20102;-78
2022/11/09 07:36:48;;;;;;;16.40;3.55;;;;;;;;;;4995539;28;20045;-75
2022/11/09 07:39:14;;;;;;;13.13;3.25;;;;;;;;;;4990031;28;20046;-78
2022/11/09 07:41:59;;;;;;;19.92;3.90;;;;;;;;;;5004859;28;20046;-78
2022/11/09 07:44:44;;;;;;;31.13;5.18;;;;;;;;;;5008591;28;20050;-77
2022/11/09 07:47:11;;;;;;;21.73;3.97;;;;;;;;;;5008919;28;20069;-77
2022/11/09 07:49:57;;;;;;;14.43;4.03;;;;;;;;;;5006258;28;20157;-79
2022/11/09 07:52:23;;;;;;;19.95;4.10;;;;;;;;;;5005883;28;20335;-78
2022/11/09 07:54:48;;;;;;;22.83;4.22;;;;;;;;;;5006046;28;20030;-76
2022/11/09 07:57:35;;;;;;;21.95;4.15;;;;;;;;;;4989195;28;20010;-78
2022/11/09 08:00:01;;;;;;;17.65;4.32;;;;;;;;;;4987221;28;20034;-78
2022/11/09 08:02:27;;;;;;;15.30;3.63;;;;;;;;;;4986055;28;20062;-77
2022/11/09 08:04:53;;;;;;;17.17;4.78;;;;;;;;;;5000887;28;20042;-77
2022/11/09 08:07:22;;;;;;;18.27;5.68;;;;;;;;;;5006437;28;20030;-78
2022/11/09 08:09:48;;;;;;;22.52;4.95;;;;;;;;;;4976677;28;20027;-77
2022/11/09 08:12:14;;;;;;;28.17;4.82;;;;;;;;;;4994010;28;20121;-76
2022/11/09 08:14:40;;;;;;;19.58;4.20;;;;;;;;;;4998078;28;20033;-79
2022/11/09 08:17:06;;;;;;;19.85;4.57;;;;;;;;;;4996269;28;20084;-80
2022/11/09 08:19:32;;;;;;;18.70;4.40;;;;;;;;;;4996292;28;20053;-76
2022/11/09 08:22:18;;;;;;;22.48;5.38;;;;;;;;;;4979148;28;20136;-77
2022/11/09 08:24:44;;;;;;;16.90;4.18;;;;;;;;;;4978903;28;20042;-77
2022/11/09 08:27:28;;;;;;;16.48;3.75;;;;;;;;;;4995049;28;20441;-77
2022/11/09 08:30:13;;;;;;;21.67;4.35;;;;;;;;;;4994605;28;20543;-77
2022/11/09 08:32:58;;;;;;;21.13;5.18;;;;;;;;;;4980701;28;20057;-76
2022/11/09 08:35:43;;;;;;;20.30;4.30;;;;;;;;;;4995478;28;20125;-79
2022/11/09 08:38:09;;;;;;;18.90;4.00;;;;;;;;;;4994119;28;20667;-77
2022/11/09 08:40:35;;;;;;;26.63;3.50;;;;;;;;;;4993554;28;20022;-77
2022/11/09 08:43:04;;;;;;;19.90;4.13;;;;;;;;;;4994978;28;20441;-78
2022/11/09 08:45:31;;;;;;;27.20;4.78;;;;;;;;;;4994679;28;20038;-77
2022/11/09 08:48:00;;;;;;;20.73;5.30;;;;;;;;;;4994489;28;20075;-76
2022/11/09 08:50:29;;;;;;;18.63;4.10;;;;;;;;;;4994962;28;20041;-77
2022/11/09 08:52:56;;;;;;;25.92;5.05;;;;;;;;;;4994847;28;20109;-77
2022/11/09 08:55:23;;;;;;;17.23;3.60;;;;;;;;;;4994497;28;20030;-76
2022/11/09 08:58:09;;;;;;;14.65;3.88;;;;;;;;;;4994384;28;20027;-77
2022/11/09 09:00:36;;;;;;;21.30;4.22;;;;;;;;;;4975509;28;20030;-78
2022/11/09 09:03:06;;;;;;;16.42;4.30;;;;;;;;;;4977038;28;20027;-78
2022/11/09 09:08:54;;;;;;;19.27;4.43;;;;;;;;;;4991997;28;20193;-78
2022/11/09 09:11:21;;;;;;;17.45;4.13;;;;;;;;;;4979952;28;20037;-77
2022/11/09 09:13:47;;;;;;;15.32;3.38;;;;;;;;;;4995581;28;20023;-78
2022/11/09 09:16:14;;;;;;;18.65;5.68;;;;;;;;;;4994423;28;20037;-78
2022/11/09 09:18:40;;;;;;;18.35;4.72;;;;;;;;;;5007583;28;20105;-78
2022/11/09 09:21:08;;;;;;;23.20;4.70;;;;;;;;;;4976966;28;20058;-77
2022/11/09 09:23:34;;;;;;;20.85;4.65;;;;;;;;;;4977693;28;20097;-77
2022/11/09 09:26:00;;;;;;;16.30;3.97;;;;;;;;;;4996466;28;20084;-78
2022/11/09 09:28:47;;;;;;;20.67;4.65;;;;;;;;;;4997207;28;20117;-78
2022/11/09 09:31:14;;;;;;;24.40;4.97;;;;;;;;;;4996445;28;20509;-77
2022/11/09 09:33:41;;;;;;;18.70;3.90;;;;;;;;;;4997185;28;20053;-77
2022/11/09 09:36:07;;;;;;;17.23;4.63;;;;;;;;;;4979346;28;20044;-78
2022/11/09 09:38:34;;;;;;;20.05;4.85;;;;;;;;;;4997551;28;20085;-79
2022/11/09 09:41:01;;;;;;;19.00;3.95;;;;;;;;;;4983201;28;20072;-77
2022/11/09 09:43:36;;;;;;;23.92;5.63;;;;;;;;;;4999517;28;20026;-76
2022/11/09 09:46:04;;;;;;;16.95;4.15;;;;;;;;;;4997613;28;20088;-77
2022/11/09 09:48:37;;;;;;;25.10;4.38;;;;;;;;;;4992120;28;20049;-78
2022/11/09 09:51:09;;;;;;;18.23;3.92;;;;;;;;;;5005114;28;20042;-77
2022/11/09 09:53:39;;;;;;;18.95;4.07;;;;;;;;;;5005321;28;20034;-79
2022/11/09 09:56:18;;;;;;;16.05;4.30;;;;;;;;;;5003406;28;20077;-80
2022/11/09 09:58:49;;;;;;;20.48;4.10;;;;;;;;;;5004943;28;20047;-79
2022/11/09 10:01:18;;;;;;;19.17;4.05;;;;;;;;;;5004497;28;20022;-78
2022/11/09 10:03:47;;;;;;;17.50;4.20;;;;;;;;;;5007642;28;20030;-77
2022/11/09 10:06:23;;;;;;;19.77;4.15;;;;;;;;;;4988400;28;20034;-76
2022/11/09 10:08:58;;;;;;;19.65;5.13;;;;;;;;;;4988277;28;20053;-77
2022/11/09 10:11:31;;;;;;;19.30;4.45;;;;;;;;;;4987534;28;20043;-77
2022/11/09 10:14:03;;;;;;;22.63;4.00;;;;;;;;;;5006619;28;20042;-78
2022/11/09 10:16:44;;;;;;;18.90;3.58;;;;;;;;;;4992261;28;20078;-80
2022/11/09 10:22:26;;;;;;;20.63;3.90;;;;;;;;;;5004478;28;20126;-76
2022/11/09 10:25:00;;;;;;;17.85;3.95;;;;;;;;;;5003470;28;20085;-77
2022/11/09 10:27:26;;;;;;;18.30;3.78;;;;;;;;;;4999557;28;20026;-77
2022/11/09 10:29:54;;;;;;;19.23;4.40;;;;;;;;;;5000282;28;20548;-80
2022/11/09 10:32:24;;;;;;;16.38;3.33;;;;;;;;;;4981989;28;20065;-77
2022/11/09 10:34:50;;;;;;;13.90;4.32;;;;;;;;;;4999177;28;20026;-78
2022/11/09 10:37:18;;;;;;;13.68;3.42;;;;;;;;;;4997117;28;20110;-78
2022/11/09 10:39:48;;;;;;;17.90;3.80;;;;;;;;;;4994729;28;20057;-78
2022/11/09 10:42:14;;;;;;;16.02;4.50;;;;;;;;;;4976507;28;20049;-77
2022/11/09 10:44:40;;;;;;;14.10;3.97;;;;;;;;;;4976917;28;20038;-79
2022/11/09 10:47:06;;;;;;;17.08;4.18;;;;;;;;;;4993905;28;20069;-80
2022/11/09 10:49:33;;;;;;;17.05;4.22;;;;;;;;;;4993128;28;20026;-80
2022/11/09 10:51:59;;;;;;;20.83;3.45;;;;;;;;;;4997090;28;20122;-79
2022/11/09 10:54:27;;;;;;;21.33;3.35;;;;;;;;;;4996535;28;20042;-78
2022/11/09 10:57:22;;;;;;;12.63;3.65;;;;;;;;;;4995650;28;20031;-78
2022/11/09 11:02:53;;;;;;;18.50;3.85;;;;;;;;;;4977460;28;20049;-78
2022/11/09 11:05:23;;;;;;;10.88;3.33;;;;;;;;;;4979281;28;20029;-79
2022/11/09 11:07:48;;;;;;;14.45;4.30;;;;;;;;;;4996648;28;20116;-78
2022/11/09 11:10:14;;;;;;;12.60;3.80;;;;;;;;;;4996512;28;20073;-77
2022/11/09 11:12:59;;;;;;;14.23;3.85;;;;;;;;;;4978934;28;20067;-79
2022/11/09 11:15:34;;;;;;;18.33;4.25;;;;;;;;;;4996190;28;20033;-76
2022/11/09 11:18:20;;;;;;;15.00;3.83;;;;;;;;;;4996957;28;20053;-78
2022/11/09 11:21:05;;;;;;;14.98;3.58;;;;;;;;;;4987776;28;20027;-77
2022/11/09 11:23:35;;;;;;;13.50;3.97;;;;;;;;;;4999964;28;20041;-78
2022/11/09 11:26:21;;;;;;;14.02;3.83;;;;;;;;;;4996821;28;20108;-78
2022/11/09 11:29:11;;;;;;;21.67;4.00;;;;;;;;;;4977921;28;20550;-79
2022/11/09 11:31:38;;;;;;;11.18;3.28;;;;;;;;;;4963547;28;20050;-77
2022/11/09 11:34:05;;;;;;;16.08;3.25;;;;;;;;;;4999792;28;20058;-79
2022/11/09 11:36:48;;;;;;;15.00;3.20;;;;;;;;;;4983508;28;20034;-78
2022/11/09 11:39:21;;;;;;;15.50;3.13;;;;;;;;;;4999786;28;20038;-79
2022/11/09 11:41:57;;;;;;;11.82;3.13;;;;;;;;;;4982092;28;20056;-78
2022/11/09 11:44:42;;;;;;;13.40;2.67;;;;;;;;;;4999875;28;20023;-78
2022/11/09 11:50:33;;;;;;;8.98;1.77;;;;;;;;;;4989735;28;20050;-75
2022/11/09 11:53:08;;;;;;;11.10;2.85;;;;;;;;;;5006667;28;20097;-77
2022/11/09 11:55:49;;;;;;;10.32;2.22;;;;;;;;;;4991068;28;20030;-76
2022/11/09 11:58:15;;;;;;;6.43;1.88;;;;;;;;;;5006795;28;20110;-77
2022/11/09 12:01:00;;;;;;;4.57;1.55;;;;;;;;;;5006489;28;20018;-76
2022/11/09 12:03:33;;;;;;;7.45;2.08;;;;;;;;;;5006488;28;20026;-77
2022/11/09 12:06:06;;;;;;;11.10;1.50;;;;;;;;;;5007692;28;20067;-79
2022/11/09 12:08:50;;;;;;;7.82;1.83;;;;;;;;;;5006719;28;20053;-77
2022/11/09 12:11:19;;;;;;;4.03;0.90;;;;;;;;;;5008937;28;20026;-78
2022/11/09 12:14:00;;;;;;;4.82;1.23;;;;;;;;;;4991419;28;20034;-78
2022/11/09 12:16:45;;;;;;;4.95;1.52;;;;;;;;;;4989875;28;20071;-78
2022/11/09 12:19:30;;;;;;;7.00;1.55;;;;;;;;;;5002437;28;20014;-78
2022/11/09 12:22:11;;;;;;;4.68;1.75;;;;;;;;;;5010657;28;20034;-77
2022/11/09 12:24:37;;;;;;;6.45;2.25;;;;;;;;;;5008645;28;20118;-78
2022/11/09 12:27:21;;;;;;;8.20;2.08;;;;;;;;;;5002447;28;20027;-78
2022/11/09 12:30:08;;;;;;;9.68;2.45;;;;;;;;;;5009184;28;20031;-78
2022/11/09 12:32:43;;;;;;;11.07;2.80;;;;;;;;;;4992691;28;20038;-79
2022/11/09 12:35:12;;;;;;;8.88;2.80;;;;;;;;;;5001148;28;20032;-78
2022/11/09 12:37:42;;;;;;;9.05;3.00;;;;;;;;;;5000575;28;20392;-79
2022/11/09 12:43:15;;;;;;;23.08;3.72;;;;;;;;;;4998712;28;20049;-78
2022/11/09 12:46:01;;;;;;;15.15;3.28;;;;;;;;;;4996572;28;20128;-78
2022/11/09 12:48:29;;;;;;;11.57;3.25;;;;;;;;;;4996781;28;20031;-77
2022/11/09 12:50:56;;;;;;;14.32;2.95;;;;;;;;;;4995443;28;20030;-75
2022/11/09 12:53:25;;;;;;;15.93;3.03;;;;;;;;;;4995354;28;20033;-79
2022/11/09 12:55:51;;;;;;;11.98;2.88;;;;;;;;;;4994292;28;20033;-78
2022/11/09 12:58:36;;;;;;;13.30;2.95;;;;;;;;;;5002055;28;20027;-77
2022/11/09 13:01:05;;;;;;;16.63;3.08;;;;;;;;;;4994595;28;20068;-77
2022/11/09 13:03:36;;;;;;;15.63;3.08;;;;;;;;;;4995003;28;20046;-79
2022/11/09 13:06:09;;;;;;;13.65;3.08;;;;;;;;;;4994555;28;20030;-78
2022/11/09 13:11:47;;;;;;;12.00;3.03;;;;;;;;;;4998478;28;20057;-78
2022/11/09 13:14:33;;;;;;;9.82;2.50;;;;;;;;;;5000811;28;20026;-78
2022/11/09 13:17:19;;;;;;;8.48;3.03;;;;;;;;;;4975170;28;20027;-78
2022/11/09 13:20:06;;;;;;;10.63;1.80;;;;;;;;;;4975027;28;20066;-77
2022/11/09 13:22:32;;;;;;;12.18;2.28;;;;;;;;;;4994418;28;20038;-79
2022/11/09 13:25:00;;;;;;;9.48;1.80;;;;;;;;;;4994313;28;20054;-79
2022/11/09 13:27:37;;;;;;;10.55;2.40;;;;;;;;;;4975587;28;20042;-79
2022/11/09 13:30:24;;;;;;;9.93;1.60;;;;;;;;;;4976289;28;20026;-79
2022/11/09 13:36:14;;;;;;;6.93;1.50;;;;;;;;;;4996760;28;20547;-77
2022/11/09 13:39:01;;;;;;;10.80;1.90;;;;;;;;;;4996932;28;20076;-77
2022/11/09 13:41:33;;;;;;;5.72;1.63;;;;;;;;;;4997668;28;20084;-78
2022/11/09 13:44:16;;;;;;;12.77;2.22;;;;;;;;;;4983584;28;20508;-80
2022/11/09 13:46:43;;;;;;;10.35;1.73;;;;;;;;;;4999860;28;20076;-80
2022/11/09 13:49:28;;;;;;;14.63;2.28;;;;;;;;;;5003102;28;20070;-79
2022/11/09 13:51:54;;;;;;;6.88;1.45;;;;;;;;;;5002891;28;20022;-79
2022/11/09 13:54:39;;;;;;;11.73;1.98;;;;;;;;;;4989817;28;20110;-79
2022/11/09 13:57:06;;;;;;;9.15;1.92;;;;;;;;;;5007530;28;20045;-79
2022/11/09 13:59:34;;;;;;;12.32;2.45;;;;;;;;;;5007974;28;20019;-78
2022/11/09 14:02:02;;;;;;;19.33;2.22;;;;;;;;;;5005796;28;20060;-79
2022/11/09 14:04:34;;;;;;;9.80;1.52;;;;;;;;;;5011646;28;20038;-79
2022/11/09 14:10:07;;;;;;;20.05;2.10;;;;;;;;;;4999721;28;20084;-77
2022/11/09 14:12:36;;;;;;;9.18;1.80;;;;;;;;;;5006672;28;20097;-78
2022/11/09 14:15:11;;;;;;;10.60;1.83;;;;;;;;;;4990035;28;20059;-77
2022/11/09 14:17:52;;;;;;;15.77;2.15;;;;;;;;;;4995518;28;20031;-78
2022/11/09 14:23:27;;;;;;;10.38;2.17;;;;;;;;;;4990818;28;20547;-77
2022/11/09 14:25:54;;;;;;;11.50;1.85;;;;;;;;;;4999795;28;20069;-78
2022/11/09 14:28:27;;;;;;;12.07;2.20;;;;;;;;;;4998392;28;20038;-77
2022/11/09 14:30:54;;;;;;;11.05;2.30;;;;;;;;;;4996183;28;20064;-78
2022/11/09 14:33:23;;;;;;;9.32;1.92;;;;;;;;;;4993239;28;20030;-79
2022/11/09 14:35:49;;;;;;;13.90;2.97;;;;;;;;;;4994684;28;20038;-77
2022/11/09 14:38:35;;;;;;;10.48;2.20;;;;;;;;;;4993615;28;20087;-77
2022/11/09 14:41:01;;;;;;;7.35;1.77;;;;;;;;;;4993828;28;20026;-77
2022/11/09 14:46:31;;;;;;;14.82;2.38;;;;;;;;;;4993031;28;20026;-78
2022/11/09 14:49:01;;;;;;;15.07;2.55;;;;;;;;;;4991753;28;20038;-77
2022/11/09 14:51:35;;;;;;;20.20;2.60;;;;;;;;;;4991378;28;20058;-77
2022/11/09 14:54:01;;;;;;;14.13;3.95;;;;;;;;;;4992527;28;20027;-78
2022/11/09 14:59:32;;;;;;;14.43;2.67;;;;;;;;;;4974259;28;20122;-78
2022/11/09 15:02:09;;;;;;;13.10;3.00;;;;;;;;;;4958335;28;20406;-78
2022/11/09 15:04:55;;;;;;;14.48;2.60;;;;;;;;;;4988394;28;20105;-77
2022/11/09 15:07:22;;;;;;;12.00;2.47;;;;;;;;;;4997593;28;20061;-78
2022/11/09 15:09:50;;;;;;;22.70;4.53;;;;;;;;;;4997320;28;20057;-77
2022/11/09 15:15:22;;;;;;;14.18;2.78;;;;;;;;;;4995363;28;20091;-79
2022/11/09 15:17:49;;;;;;;18.90;3.63;;;;;;;;;;4995748;28;20018;-77
2022/11/09 15:20:15;;;;;;;13.20;3.13;;;;;;;;;;4996401;28;20254;-79
2022/11/09 15:23:00;;;;;;;12.55;3.35;;;;;;;;;;4993692;28;20037;-77
2022/11/09 15:25:33;;;;;;;18.98;2.42;;;;;;;;;;4981176;28;20106;-77
2022/11/09 15:27:59;;;;;;;17.67;2.55;;;;;;;;;;5001810;28;20062;-77